sensor_id;sensor_type;location;lat;lon;timestamp;P1;durP1;ratioP1;P2;durP2;ratioP2
70744;SDS011;59284;31.390;34.904;2023-06-22T00:02:11;31.55;;;16.88;;
70744;SDS011;59284;31.390;34.904;2023-06-22T00:05:00;40.22;;;19.00;;
70744;SDS011;59284;31.390;34.904;2023-06-22T00:07:49;37.60;;;16.43;;
70744;SDS011;59284;31.390;34.904;2023-06-22T00:10:38;40.58;;;17.90;;
70744;SDS011;59284;31.390;34.904;2023-06-22T00:13:26;32.22;;;18.05;;
70744;SDS011;59284;31.390;34.904;2023-06-22T00:16:16;41.63;;;18.30;;
70744;SDS011;59284;31.390;34.904;2023-06-22T00:19:04;32.20;;;16.55;;
70744;SDS011;59284;31.390;34.904;2023-06-22T00:21:54;37.07;;;18.47;;
70744;SDS011;59284;31.390;34.904;2023-06-22T00:24:43;33.35;;;16.33;;
70744;SDS011;59284;31.390;34.904;2023-06-22T00:27:32;34.50;;;18.85;;
70744;SDS011;59284;31.390;34.904;2023-06-22T00:30:20;31.50;;;18.70;;
70744;SDS011;59284;31.390;34.904;2023-06-22T00:33:09;36.55;;;19.52;;
70744;SDS011;59284;31.390;34.904;2023-06-22T00:35:57;34.47;;;16.43;;
70744;SDS011;59284;31.390;34.904;2023-06-22T00:38:50;34.20;;;18.53;;
70744;SDS011;59284;31.390;34.904;2023-06-22T00:41:39;40.10;;;20.33;;
70744;SDS011;59284;31.390;34.904;2023-06-22T00:44:28;32.10;;;17.80;;
70744;SDS011;59284;31.390;34.904;2023-06-22T00:47:17;61.70;;;19.23;;
70744;SDS011;59284;31.390;34.904;2023-06-22T00:50:08;31.15;;;18.38;;
70744;SDS011;59284;31.390;34.904;2023-06-22T00:53:01;30.97;;;16.63;;
70744;SDS011;59284;31.390;34.904;2023-06-22T00:55:51;43.08;;;18.00;;
70744;SDS011;59284;31.390;34.904;2023-06-22T00:58:45;40.28;;;18.80;;
70744;SDS011;59284;31.390;34.904;2023-06-22T01:01:37;38.28;;;20.10;;
70744;SDS011;59284;31.390;34.904;2023-06-22T01:04:34;42.88;;;20.52;;
70744;SDS011;59284;31.390;34.904;2023-06-22T01:07:30;42.43;;;19.20;;
70744;SDS011;59284;31.390;34.904;2023-06-22T01:10:48;155.48;;;21.95;;
70744;SDS011;59284;31.390;34.904;2023-06-22T01:16:46;45.00;;;21.60;;
70744;SDS011;59284;31.390;34.904;2023-06-22T01:19:45;46.72;;;23.27;;
70744;SDS011;59284;31.390;34.904;2023-06-22T01:22:51;49.50;;;23.47;;
70744;SDS011;59284;31.390;34.904;2023-06-22T01:25:59;39.40;;;20.80;;
70744;SDS011;59284;31.390;34.904;2023-06-22T01:29:00;51.42;;;22.02;;
70744;SDS011;59284;31.390;34.904;2023-06-22T01:31:49;41.78;;;19.90;;
70744;SDS011;59284;31.390;34.904;2023-06-22T01:34:40;47.35;;;22.98;;
70744;SDS011;59284;31.390;34.904;2023-06-22T01:37:32;50.70;;;23.33;;
70744;SDS011;59284;31.390;34.904;2023-06-22T01:40:22;47.30;;;21.40;;
70744;SDS011;59284;31.390;34.904;2023-06-22T01:43:12;50.42;;;23.00;;
70744;SDS011;59284;31.390;34.904;2023-06-22T01:46:02;59.13;;;25.42;;
70744;SDS011;59284;31.390;34.904;2023-06-22T01:48:52;60.58;;;24.55;;
70744;SDS011;59284;31.390;34.904;2023-06-22T01:51:42;61.27;;;24.17;;
70744;SDS011;59284;31.390;34.904;2023-06-22T01:54:33;59.42;;;22.20;;
70744;SDS011;59284;31.390;34.904;2023-06-22T01:57:23;68.57;;;23.85;;
70744;SDS011;59284;31.390;34.904;2023-06-22T02:00:14;55.97;;;21.10;;
70744;SDS011;59284;31.390;34.904;2023-06-22T02:03:10;51.45;;;21.05;;
70744;SDS011;59284;31.390;34.904;2023-06-22T02:06:17;56.67;;;22.00;;
70744;SDS011;59284;31.390;34.904;2023-06-22T02:09:09;82.05;;;29.75;;
70744;SDS011;59284;31.390;34.904;2023-06-22T02:12:02;76.13;;;30.38;;
70744;SDS011;59284;31.390;34.904;2023-06-22T02:14:52;75.78;;;25.58;;
70744;SDS011;59284;31.390;34.904;2023-06-22T02:17:43;75.60;;;26.90;;
70744;SDS011;59284;31.390;34.904;2023-06-22T02:20:36;75.27;;;26.17;;
70744;SDS011;59284;31.390;34.904;2023-06-22T02:23:24;70.32;;;28.52;;
70744;SDS011;59284;31.390;34.904;2023-06-22T02:26:16;61.20;;;24.30;;
70744;SDS011;59284;31.390;34.904;2023-06-22T02:29:07;55.80;;;23.52;;
70744;SDS011;59284;31.390;34.904;2023-06-22T02:31:57;45.72;;;20.25;;
70744;SDS011;59284;31.390;34.904;2023-06-22T02:34:48;47.93;;;20.77;;
70744;SDS011;59284;31.390;34.904;2023-06-22T02:37:38;47.53;;;20.23;;
70744;SDS011;59284;31.390;34.904;2023-06-22T02:40:29;44.47;;;21.00;;
70744;SDS011;59284;31.390;34.904;2023-06-22T02:43:19;36.65;;;17.55;;
70744;SDS011;59284;31.390;34.904;2023-06-22T02:46:10;29.80;;;14.98;;
70744;SDS011;59284;31.390;34.904;2023-06-22T02:49:01;31.83;;;15.43;;
70744;SDS011;59284;31.390;34.904;2023-06-22T02:51:53;24.73;;;13.65;;
70744;SDS011;59284;31.390;34.904;2023-06-22T02:54:43;21.98;;;12.13;;
70744;SDS011;59284;31.390;34.904;2023-06-22T02:57:34;26.42;;;12.80;;
70744;SDS011;59284;31.390;34.904;2023-06-22T03:00:29;25.70;;;14.80;;
70744;SDS011;59284;31.390;34.904;2023-06-22T03:03:20;23.23;;;13.40;;
70744;SDS011;59284;31.390;34.904;2023-06-22T03:06:11;21.42;;;11.68;;
70744;SDS011;59284;31.390;34.904;2023-06-22T03:09:05;16.60;;;9.50;;
70744;SDS011;59284;31.390;34.904;2023-06-22T03:11:56;12.40;;;8.73;;
70744;SDS011;59284;31.390;34.904;2023-06-22T03:14:46;14.05;;;7.25;;
70744;SDS011;59284;31.390;34.904;2023-06-22T03:17:39;11.88;;;6.88;;
70744;SDS011;59284;31.390;34.904;2023-06-22T03:20:30;13.47;;;7.20;;
70744;SDS011;59284;31.390;34.904;2023-06-22T03:23:19;9.98;;;6.25;;
70744;SDS011;59284;31.390;34.904;2023-06-22T03:26:09;9.43;;;6.40;;
70744;SDS011;59284;31.390;34.904;2023-06-22T03:28:55;11.15;;;6.32;;
70744;SDS011;59284;31.390;34.904;2023-06-22T03:31:33;10.93;;;6.35;;
70744;SDS011;59284;31.390;34.904;2023-06-22T03:34:19;16.40;;;6.10;;
70744;SDS011;59284;31.390;34.904;2023-06-22T03:36:51;10.82;;;6.00;;
70744;SDS011;59284;31.390;34.904;2023-06-22T03:39:24;14.48;;;6.28;;
70744;SDS011;59284;31.390;34.904;2023-06-22T03:42:00;12.18;;;6.22;;
70744;SDS011;59284;31.390;34.904;2023-06-22T03:44:43;15.77;;;6.78;;
70744;SDS011;59284;31.390;34.904;2023-06-22T03:47:30;13.10;;;6.43;;
70744;SDS011;59284;31.390;34.904;2023-06-22T03:50:19;11.25;;;5.50;;
70744;SDS011;59284;31.390;34.904;2023-06-22T03:53:09;10.85;;;5.93;;
70744;SDS011;59284;31.390;34.904;2023-06-22T03:56:00;11.85;;;6.13;;
70744;SDS011;59284;31.390;34.904;2023-06-22T03:58:51;13.10;;;6.50;;
70744;SDS011;59284;31.390;34.904;2023-06-22T04:01:42;16.10;;;6.97;;
70744;SDS011;59284;31.390;34.904;2023-06-22T04:04:35;13.98;;;6.57;;
70744;SDS011;59284;31.390;34.904;2023-06-22T04:07:25;12.73;;;6.47;;
70744;SDS011;59284;31.390;34.904;2023-06-22T04:10:15;14.60;;;6.68;;
70744;SDS011;59284;31.390;34.904;2023-06-22T04:13:06;16.92;;;7.00;;
70744;SDS011;59284;31.390;34.904;2023-06-22T04:15:56;14.77;;;7.50;;
70744;SDS011;59284;31.390;34.904;2023-06-22T04:18:46;16.30;;;8.32;;
70744;SDS011;59284;31.390;34.904;2023-06-22T04:21:41;17.55;;;8.05;;
70744;SDS011;59284;31.390;34.904;2023-06-22T04:24:33;18.20;;;6.50;;
70744;SDS011;59284;31.390;34.904;2023-06-22T04:27:23;21.85;;;8.23;;
70744;SDS011;59284;31.390;34.904;2023-06-22T04:30:14;15.20;;;7.60;;
70744;SDS011;59284;31.390;34.904;2023-06-22T04:33:14;24.85;;;8.80;;
70744;SDS011;59284;31.390;34.904;2023-06-22T04:36:06;17.15;;;8.20;;
70744;SDS011;59284;31.390;34.904;2023-06-22T04:39:09;13.63;;;7.03;;
70744;SDS011;59284;31.390;34.904;2023-06-22T04:42:01;16.63;;;8.30;;
70744;SDS011;59284;31.390;34.904;2023-06-22T04:44:52;18.57;;;8.33;;
70744;SDS011;59284;31.390;34.904;2023-06-22T04:47:42;18.73;;;8.73;;
70744;SDS011;59284;31.390;34.904;2023-06-22T04:50:33;21.50;;;8.65;;
70744;SDS011;59284;31.390;34.904;2023-06-22T04:53:28;14.68;;;8.00;;
70744;SDS011;59284;31.390;34.904;2023-06-22T04:56:26;17.70;;;8.32;;
70744;SDS011;59284;31.390;34.904;2023-06-22T04:59:27;19.48;;;9.25;;
70744;SDS011;59284;31.390;34.904;2023-06-22T05:02:18;15.77;;;9.30;;
70744;SDS011;59284;31.390;34.904;2023-06-22T05:05:10;20.90;;;10.50;;
70744;SDS011;59284;31.390;34.904;2023-06-22T05:08:00;16.98;;;8.85;;
70744;SDS011;59284;31.390;34.904;2023-06-22T05:10:51;17.73;;;8.95;;
70744;SDS011;59284;31.390;34.904;2023-06-22T05:13:44;18.23;;;9.75;;
70744;SDS011;59284;31.390;34.904;2023-06-22T05:16:38;20.97;;;9.77;;
70744;SDS011;59284;31.390;34.904;2023-06-22T05:19:38;17.75;;;10.63;;
70744;SDS011;59284;31.390;34.904;2023-06-22T05:22:33;17.10;;;9.32;;
70744;SDS011;59284;31.390;34.904;2023-06-22T05:25:27;18.83;;;11.60;;
70744;SDS011;59284;31.390;34.904;2023-06-22T05:28:16;15.90;;;9.43;;
70744;SDS011;59284;31.390;34.904;2023-06-22T05:31:11;22.63;;;10.53;;
70744;SDS011;59284;31.390;34.904;2023-06-22T05:34:05;28.33;;;13.13;;
70744;SDS011;59284;31.390;34.904;2023-06-22T05:36:56;19.58;;;12.23;;
70744;SDS011;59284;31.390;34.904;2023-06-22T05:39:51;23.52;;;11.45;;
70744;SDS011;59284;31.390;34.904;2023-06-22T05:42:43;19.50;;;12.10;;
70744;SDS011;59284;31.390;34.904;2023-06-22T05:45:36;16.23;;;9.67;;
70744;SDS011;59284;31.390;34.904;2023-06-22T05:48:28;19.23;;;9.57;;
70744;SDS011;59284;31.390;34.904;2023-06-22T05:51:21;12.85;;;8.27;;
70744;SDS011;59284;31.390;34.904;2023-06-22T05:54:14;13.07;;;7.15;;
70744;SDS011;59284;31.390;34.904;2023-06-22T05:56:43;10.93;;;5.63;;
70744;SDS011;59284;31.390;34.904;2023-06-22T05:59:08;7.90;;;4.90;;
70744;SDS011;59284;31.390;34.904;2023-06-22T06:01:34;8.52;;;5.60;;
70744;SDS011;59284;31.390;34.904;2023-06-22T06:04:01;9.80;;;5.57;;
70744;SDS011;59284;31.390;34.904;2023-06-22T06:06:28;7.65;;;5.45;;
70744;SDS011;59284;31.390;34.904;2023-06-22T06:08:55;8.15;;;5.35;;
70744;SDS011;59284;31.390;34.904;2023-06-22T06:11:21;9.50;;;4.72;;
70744;SDS011;59284;31.390;34.904;2023-06-22T06:13:47;9.90;;;5.30;;
70744;SDS011;59284;31.390;34.904;2023-06-22T06:16:12;9.73;;;5.30;;
70744;SDS011;59284;31.390;34.904;2023-06-22T06:18:38;9.17;;;6.07;;
70744;SDS011;59284;31.390;34.904;2023-06-22T06:21:03;10.67;;;5.47;;
70744;SDS011;59284;31.390;34.904;2023-06-22T06:23:29;9.57;;;6.07;;
70744;SDS011;59284;31.390;34.904;2023-06-22T06:25:55;10.63;;;6.25;;
70744;SDS011;59284;31.390;34.904;2023-06-22T06:28:21;9.20;;;5.50;;
70744;SDS011;59284;31.390;34.904;2023-06-22T06:30:47;12.40;;;6.10;;
70744;SDS011;59284;31.390;34.904;2023-06-22T06:33:13;9.20;;;6.32;;
70744;SDS011;59284;31.390;34.904;2023-06-22T06:35:39;9.73;;;6.33;;
70744;SDS011;59284;31.390;34.904;2023-06-22T06:38:04;8.05;;;5.82;;
70744;SDS011;59284;31.390;34.904;2023-06-22T06:40:30;10.43;;;6.33;;
70744;SDS011;59284;31.390;34.904;2023-06-22T06:42:56;10.15;;;5.88;;
70744;SDS011;59284;31.390;34.904;2023-06-22T06:45:22;10.27;;;5.90;;
70744;SDS011;59284;31.390;34.904;2023-06-22T06:47:48;8.50;;;5.35;;
70744;SDS011;59284;31.390;34.904;2023-06-22T06:50:15;11.02;;;6.25;;
70744;SDS011;59284;31.390;34.904;2023-06-22T06:52:41;8.55;;;6.30;;
70744;SDS011;59284;31.390;34.904;2023-06-22T06:55:06;9.53;;;6.17;;
70744;SDS011;59284;31.390;34.904;2023-06-22T06:57:35;9.00;;;5.28;;
70744;SDS011;59284;31.390;34.904;2023-06-22T07:00:02;10.73;;;6.75;;
70744;SDS011;59284;31.390;34.904;2023-06-22T07:02:34;9.90;;;5.57;;
70744;SDS011;59284;31.390;34.904;2023-06-22T07:05:00;8.30;;;5.40;;
70744;SDS011;59284;31.390;34.904;2023-06-22T07:07:29;8.32;;;5.97;;
70744;SDS011;59284;31.390;34.904;2023-06-22T07:09:55;6.97;;;5.25;;
70744;SDS011;59284;31.390;34.904;2023-06-22T07:12:20;13.27;;;5.77;;
70744;SDS011;59284;31.390;34.904;2023-06-22T07:14:46;11.07;;;5.83;;
70744;SDS011;59284;31.390;34.904;2023-06-22T07:17:11;9.05;;;6.30;;
70744;SDS011;59284;31.390;34.904;2023-06-22T07:19:37;11.60;;;6.20;;
70744;SDS011;59284;31.390;34.904;2023-06-22T07:22:04;9.57;;;5.10;;
70744;SDS011;59284;31.390;34.904;2023-06-22T07:24:29;11.68;;;6.43;;
70744;SDS011;59284;31.390;34.904;2023-06-22T07:26:55;10.63;;;7.00;;
70744;SDS011;59284;31.390;34.904;2023-06-22T07:29:24;14.45;;;5.50;;
70744;SDS011;59284;31.390;34.904;2023-06-22T07:31:50;9.65;;;6.10;;
70744;SDS011;59284;31.390;34.904;2023-06-22T07:34:16;9.32;;;6.10;;
70744;SDS011;59284;31.390;34.904;2023-06-22T07:36:43;9.50;;;5.73;;
70744;SDS011;59284;31.390;34.904;2023-06-22T07:39:09;7.30;;;5.72;;
70744;SDS011;59284;31.390;34.904;2023-06-22T07:41:34;10.70;;;5.95;;
70744;SDS011;59284;31.390;34.904;2023-06-22T07:44:00;7.93;;;5.43;;
70744;SDS011;59284;31.390;34.904;2023-06-22T07:46:26;12.82;;;6.32;;
70744;SDS011;59284;31.390;34.904;2023-06-22T07:48:55;8.82;;;6.63;;
70744;SDS011;59284;31.390;34.904;2023-06-22T07:51:21;8.90;;;5.30;;
70744;SDS011;59284;31.390;34.904;2023-06-22T07:53:47;9.73;;;6.30;;
70744;SDS011;59284;31.390;34.904;2023-06-22T07:56:13;9.47;;;5.13;;
70744;SDS011;59284;31.390;34.904;2023-06-22T07:58:39;10.60;;;6.22;;
70744;SDS011;59284;31.390;34.904;2023-06-22T08:01:04;20.45;;;6.53;;
70744;SDS011;59284;31.390;34.904;2023-06-22T08:03:31;11.32;;;6.25;;
70744;SDS011;59284;31.390;34.904;2023-06-22T08:05:57;8.33;;;5.60;;
70744;SDS011;59284;31.390;34.904;2023-06-22T08:08:23;11.45;;;5.68;;
70744;SDS011;59284;31.390;34.904;2023-06-22T08:10:49;13.00;;;5.85;;
70744;SDS011;59284;31.390;34.904;2023-06-22T08:13:15;9.25;;;5.95;;
70744;SDS011;59284;31.390;34.904;2023-06-22T08:15:40;8.00;;;5.67;;
70744;SDS011;59284;31.390;34.904;2023-06-22T08:18:06;8.00;;;5.63;;
70744;SDS011;59284;31.390;34.904;2023-06-22T08:20:32;10.77;;;5.50;;
70744;SDS011;59284;31.390;34.904;2023-06-22T08:22:57;9.27;;;5.53;;
70744;SDS011;59284;31.390;34.904;2023-06-22T08:25:30;7.83;;;4.57;;
70744;SDS011;59284;31.390;34.904;2023-06-22T08:27:55;9.18;;;5.60;;
70744;SDS011;59284;31.390;34.904;2023-06-22T08:30:21;10.67;;;5.30;;
70744;SDS011;59284;31.390;34.904;2023-06-22T08:32:46;8.73;;;5.47;;
70744;SDS011;59284;31.390;34.904;2023-06-22T08:35:12;9.77;;;5.73;;
70744;SDS011;59284;31.390;34.904;2023-06-22T08:37:38;11.65;;;5.68;;
70744;SDS011;59284;31.390;34.904;2023-06-22T08:40:04;12.30;;;4.60;;
70744;SDS011;59284;31.390;34.904;2023-06-22T08:42:33;9.57;;;4.82;;
70744;SDS011;59284;31.390;34.904;2023-06-22T08:44:59;9.40;;;5.40;;
70744;SDS011;59284;31.390;34.904;2023-06-22T08:47:25;12.90;;;5.83;;
70744;SDS011;59284;31.390;34.904;2023-06-22T08:49:50;11.25;;;5.60;;
70744;SDS011;59284;31.390;34.904;2023-06-22T08:52:17;8.97;;;5.00;;
70744;SDS011;59284;31.390;34.904;2023-06-22T08:54:43;7.07;;;4.93;;
70744;SDS011;59284;31.390;34.904;2023-06-22T08:57:09;12.13;;;5.13;;
70744;SDS011;59284;31.390;34.904;2023-06-22T08:59:35;9.40;;;5.22;;
70744;SDS011;59284;31.390;34.904;2023-06-22T09:02:01;8.05;;;4.03;;
70744;SDS011;59284;31.390;34.904;2023-06-22T09:04:26;7.67;;;4.63;;
70744;SDS011;59284;31.390;34.904;2023-06-22T09:06:52;7.67;;;4.83;;
70744;SDS011;59284;31.390;34.904;2023-06-22T09:09:18;10.07;;;4.95;;
70744;SDS011;59284;31.390;34.904;2023-06-22T09:11:44;8.93;;;5.03;;
70744;SDS011;59284;31.390;34.904;2023-06-22T09:14:10;7.50;;;4.27;;
70744;SDS011;59284;31.390;34.904;2023-06-22T09:16:36;8.15;;;5.05;;
70744;SDS011;59284;31.390;34.904;2023-06-22T09:19:02;6.15;;;4.57;;
70744;SDS011;59284;31.390;34.904;2023-06-22T09:21:28;7.53;;;4.50;;
70744;SDS011;59284;31.390;34.904;2023-06-22T09:23:54;7.90;;;4.65;;
70744;SDS011;59284;31.390;34.904;2023-06-22T09:26:20;8.73;;;4.97;;
70744;SDS011;59284;31.390;34.904;2023-06-22T09:28:46;7.43;;;4.60;;
70744;SDS011;59284;31.390;34.904;2023-06-22T09:31:12;10.05;;;4.75;;
70744;SDS011;59284;31.390;34.904;2023-06-22T09:33:39;8.90;;;5.85;;
70744;SDS011;59284;31.390;34.904;2023-06-22T09:36:05;6.80;;;4.57;;
70744;SDS011;59284;31.390;34.904;2023-06-22T09:38:41;8.97;;;4.83;;
70744;SDS011;59284;31.390;34.904;2023-06-22T09:41:06;12.15;;;5.70;;
70744;SDS011;59284;31.390;34.904;2023-06-22T09:43:32;9.30;;;5.47;;
70744;SDS011;59284;31.390;34.904;2023-06-22T09:46:01;9.33;;;4.67;;
70744;SDS011;59284;31.390;34.904;2023-06-22T09:48:27;6.32;;;4.03;;
70744;SDS011;59284;31.390;34.904;2023-06-22T09:50:55;9.00;;;4.97;;
70744;SDS011;59284;31.390;34.904;2023-06-22T09:53:21;8.07;;;4.95;;
70744;SDS011;59284;31.390;34.904;2023-06-22T09:55:47;7.23;;;4.53;;
70744;SDS011;59284;31.390;34.904;2023-06-22T09:58:12;10.60;;;5.18;;
70744;SDS011;59284;31.390;34.904;2023-06-22T10:00:38;8.17;;;4.37;;
70744;SDS011;59284;31.390;34.904;2023-06-22T10:03:04;7.82;;;4.53;;
70744;SDS011;59284;31.390;34.904;2023-06-22T10:05:29;8.13;;;4.63;;
70744;SDS011;59284;31.390;34.904;2023-06-22T10:07:55;10.20;;;4.65;;
70744;SDS011;59284;31.390;34.904;2023-06-22T10:10:21;7.30;;;4.33;;
70744;SDS011;59284;31.390;34.904;2023-06-22T10:12:54;7.93;;;4.50;;
70744;SDS011;59284;31.390;34.904;2023-06-22T10:15:22;6.13;;;3.87;;
70744;SDS011;59284;31.390;34.904;2023-06-22T10:17:47;7.75;;;4.22;;
70744;SDS011;59284;31.390;34.904;2023-06-22T10:20:13;7.72;;;4.72;;
70744;SDS011;59284;31.390;34.904;2023-06-22T10:22:40;7.43;;;5.17;;
70744;SDS011;59284;31.390;34.904;2023-06-22T10:25:07;5.88;;;4.55;;
70744;SDS011;59284;31.390;34.904;2023-06-22T10:27:33;6.75;;;4.55;;
70744;SDS011;59284;31.390;34.904;2023-06-22T10:29:59;5.22;;;3.95;;
70744;SDS011;59284;31.390;34.904;2023-06-22T10:32:24;7.07;;;3.60;;
70744;SDS011;59284;31.390;34.904;2023-06-22T10:34:50;7.00;;;4.15;;
70744;SDS011;59284;31.390;34.904;2023-06-22T10:37:16;8.57;;;3.70;;
70744;SDS011;59284;31.390;34.904;2023-06-22T10:39:41;6.85;;;4.75;;
70744;SDS011;59284;31.390;34.904;2023-06-22T10:42:07;9.63;;;3.90;;
70744;SDS011;59284;31.390;34.904;2023-06-22T10:44:33;8.50;;;3.95;;
70744;SDS011;59284;31.390;34.904;2023-06-22T10:46:58;8.17;;;3.80;;
70744;SDS011;59284;31.390;34.904;2023-06-22T10:49:24;9.13;;;5.18;;
70744;SDS011;59284;31.390;34.904;2023-06-22T10:51:49;5.97;;;4.60;;
70744;SDS011;59284;31.390;34.904;2023-06-22T10:54:15;9.50;;;4.30;;
70744;SDS011;59284;31.390;34.904;2023-06-22T10:56:43;7.15;;;5.05;;
70744;SDS011;59284;31.390;34.904;2023-06-22T10:59:09;9.75;;;5.68;;
70744;SDS011;59284;31.390;34.904;2023-06-22T11:01:35;8.17;;;4.50;;
70744;SDS011;59284;31.390;34.904;2023-06-22T11:04:02;9.45;;;5.07;;
70744;SDS011;59284;31.390;34.904;2023-06-22T11:06:28;12.52;;;5.07;;
70744;SDS011;59284;31.390;34.904;2023-06-22T11:08:53;10.03;;;6.37;;
70744;SDS011;59284;31.390;34.904;2023-06-22T11:11:19;8.05;;;5.28;;
70744;SDS011;59284;31.390;34.904;2023-06-22T11:13:44;8.17;;;4.90;;
70744;SDS011;59284;31.390;34.904;2023-06-22T11:16:10;11.05;;;5.93;;
70744;SDS011;59284;31.390;34.904;2023-06-22T11:18:36;11.07;;;4.80;;
70744;SDS011;59284;31.390;34.904;2023-06-22T11:21:02;9.05;;;5.53;;
70744;SDS011;59284;31.390;34.904;2023-06-22T11:23:27;9.13;;;5.43;;
70744;SDS011;59284;31.390;34.904;2023-06-22T11:25:53;9.95;;;5.45;;
70744;SDS011;59284;31.390;34.904;2023-06-22T11:28:19;12.85;;;5.32;;
70744;SDS011;59284;31.390;34.904;2023-06-22T11:30:45;8.80;;;5.83;;
70744;SDS011;59284;31.390;34.904;2023-06-22T11:33:11;12.85;;;6.53;;
70744;SDS011;59284;31.390;34.904;2023-06-22T11:35:36;17.90;;;12.33;;
70744;SDS011;59284;31.390;34.904;2023-06-22T11:38:02;30.35;;;25.75;;
70744;SDS011;59284;31.390;34.904;2023-06-22T11:40:29;45.90;;;36.05;;
70744;SDS011;59284;31.390;34.904;2023-06-22T11:42:55;10.67;;;6.77;;
70744;SDS011;59284;31.390;34.904;2023-06-22T11:45:21;20.15;;;12.10;;
70744;SDS011;59284;31.390;34.904;2023-06-22T11:47:47;11.97;;;7.40;;
70744;SDS011;59284;31.390;34.904;2023-06-22T11:50:12;15.32;;;7.35;;
70744;SDS011;59284;31.390;34.904;2023-06-22T11:52:38;12.07;;;7.53;;
70744;SDS011;59284;31.390;34.904;2023-06-22T11:55:04;8.63;;;6.30;;
70744;SDS011;59284;31.390;34.904;2023-06-22T11:57:35;7.82;;;4.60;;
70744;SDS011;59284;31.390;34.904;2023-06-22T12:00:01;8.25;;;6.00;;
70744;SDS011;59284;31.390;34.904;2023-06-22T12:02:31;9.87;;;5.80;;
70744;SDS011;59284;31.390;34.904;2023-06-22T12:04:57;10.45;;;5.70;;
70744;SDS011;59284;31.390;34.904;2023-06-22T12:07:23;9.00;;;5.68;;
70744;SDS011;59284;31.390;34.904;2023-06-22T12:09:49;9.70;;;4.90;;
70744;SDS011;59284;31.390;34.904;2023-06-22T12:12:15;9.90;;;5.30;;
70744;SDS011;59284;31.390;34.904;2023-06-22T12:14:40;10.45;;;5.20;;
70744;SDS011;59284;31.390;34.904;2023-06-22T12:17:06;10.10;;;5.53;;
70744;SDS011;59284;31.390;34.904;2023-06-22T12:19:31;11.10;;;4.93;;
70744;SDS011;59284;31.390;34.904;2023-06-22T12:21:57;8.60;;;5.20;;
70744;SDS011;59284;31.390;34.904;2023-06-22T12:24:23;7.00;;;4.25;;
70744;SDS011;59284;31.390;34.904;2023-06-22T12:26:48;8.73;;;5.70;;
70744;SDS011;59284;31.390;34.904;2023-06-22T12:29:14;8.07;;;4.85;;
70744;SDS011;59284;31.390;34.904;2023-06-22T12:31:40;10.80;;;5.03;;
70744;SDS011;59284;31.390;34.904;2023-06-22T12:34:06;6.28;;;4.55;;
70744;SDS011;59284;31.390;34.904;2023-06-22T12:36:32;8.18;;;4.38;;
70744;SDS011;59284;31.390;34.904;2023-06-22T12:38:57;6.97;;;4.53;;
70744;SDS011;59284;31.390;34.904;2023-06-22T12:41:23;5.73;;;3.83;;
70744;SDS011;59284;31.390;34.904;2023-06-22T12:43:49;5.55;;;4.10;;
70744;SDS011;59284;31.390;34.904;2023-06-22T12:46:14;5.33;;;4.30;;
70744;SDS011;59284;31.390;34.904;2023-06-22T12:48:40;9.07;;;4.40;;
70744;SDS011;59284;31.390;34.904;2023-06-22T12:51:08;8.73;;;4.27;;
70744;SDS011;59284;31.390;34.904;2023-06-22T12:53:34;9.98;;;4.15;;
70744;SDS011;59284;31.390;34.904;2023-06-22T12:56:00;10.90;;;4.47;;
70744;SDS011;59284;31.390;34.904;2023-06-22T12:58:25;6.17;;;4.17;;
70744;SDS011;59284;31.390;34.904;2023-06-22T13:00:51;8.88;;;4.25;;
70744;SDS011;59284;31.390;34.904;2023-06-22T13:03:17;5.63;;;4.17;;
70744;SDS011;59284;31.390;34.904;2023-06-22T13:05:42;6.10;;;4.15;;
70744;SDS011;59284;31.390;34.904;2023-06-22T13:08:08;7.50;;;4.30;;
70744;SDS011;59284;31.390;34.904;2023-06-22T13:10:33;7.00;;;4.53;;
70744;SDS011;59284;31.390;34.904;2023-06-22T13:12:59;9.20;;;3.97;;
70744;SDS011;59284;31.390;34.904;2023-06-22T13:15:28;6.85;;;3.80;;
70744;SDS011;59284;31.390;34.904;2023-06-22T13:17:53;6.33;;;4.43;;
70744;SDS011;59284;31.390;34.904;2023-06-22T13:20:20;10.60;;;3.78;;
70744;SDS011;59284;31.390;34.904;2023-06-22T13:22:45;5.60;;;4.30;;
70744;SDS011;59284;31.390;34.904;2023-06-22T13:25:11;6.93;;;4.20;;
70744;SDS011;59284;31.390;34.904;2023-06-22T13:27:41;8.07;;;4.13;;
70744;SDS011;59284;31.390;34.904;2023-06-22T13:30:07;6.37;;;4.10;;
70744;SDS011;59284;31.390;34.904;2023-06-22T13:32:33;5.53;;;3.55;;
70744;SDS011;59284;31.390;34.904;2023-06-22T13:34:59;9.45;;;4.05;;
70744;SDS011;59284;31.390;34.904;2023-06-22T13:37:25;8.50;;;3.60;;
70744;SDS011;59284;31.390;34.904;2023-06-22T13:39:51;8.00;;;4.70;;
70744;SDS011;59284;31.390;34.904;2023-06-22T13:42:17;9.67;;;4.57;;
70744;SDS011;59284;31.390;34.904;2023-06-22T13:44:42;7.95;;;4.03;;
70744;SDS011;59284;31.390;34.904;2023-06-22T13:47:08;8.97;;;4.23;;
70744;SDS011;59284;31.390;34.904;2023-06-22T13:49:34;8.33;;;4.60;;
70744;SDS011;59284;31.390;34.904;2023-06-22T13:51:59;7.70;;;4.50;;
70744;SDS011;59284;31.390;34.904;2023-06-22T13:54:25;6.73;;;3.73;;
70744;SDS011;59284;31.390;34.904;2023-06-22T13:56:51;6.97;;;4.43;;
70744;SDS011;59284;31.390;34.904;2023-06-22T13:59:16;6.07;;;4.13;;
70744;SDS011;59284;31.390;34.904;2023-06-22T14:01:42;7.63;;;4.23;;
70744;SDS011;59284;31.390;34.904;2023-06-22T14:04:08;8.02;;;4.15;;
70744;SDS011;59284;31.390;34.904;2023-06-22T14:06:34;8.93;;;5.00;;
70744;SDS011;59284;31.390;34.904;2023-06-22T14:08:59;6.07;;;4.07;;
70744;SDS011;59284;31.390;34.904;2023-06-22T14:11:25;7.53;;;4.40;;
70744;SDS011;59284;31.390;34.904;2023-06-22T14:13:50;5.97;;;4.27;;
70744;SDS011;59284;31.390;34.904;2023-06-22T14:16:17;7.03;;;4.53;;
70744;SDS011;59284;31.390;34.904;2023-06-22T14:18:42;7.00;;;4.90;;
70744;SDS011;59284;31.390;34.904;2023-06-22T14:21:08;7.57;;;5.22;;
70744;SDS011;59284;31.390;34.904;2023-06-22T14:23:33;6.33;;;4.93;;
70744;SDS011;59284;31.390;34.904;2023-06-22T14:25:59;6.93;;;4.13;;
70744;SDS011;59284;31.390;34.904;2023-06-22T14:28:25;11.73;;;4.93;;
70744;SDS011;59284;31.390;34.904;2023-06-22T14:30:50;11.57;;;5.10;;
70744;SDS011;59284;31.390;34.904;2023-06-22T14:33:16;10.55;;;4.72;;
70744;SDS011;59284;31.390;34.904;2023-06-22T14:35:41;10.63;;;5.17;;
70744;SDS011;59284;31.390;34.904;2023-06-22T14:38:07;19.50;;;5.60;;
70744;SDS011;59284;31.390;34.904;2023-06-22T14:40:32;11.67;;;5.40;;
70744;SDS011;59284;31.390;34.904;2023-06-22T14:42:58;10.30;;;5.60;;
70744;SDS011;59284;31.390;34.904;2023-06-22T14:45:24;10.32;;;5.47;;
70744;SDS011;59284;31.390;34.904;2023-06-22T14:47:49;11.40;;;5.13;;
70744;SDS011;59284;31.390;34.904;2023-06-22T14:50:15;9.90;;;5.75;;
70744;SDS011;59284;31.390;34.904;2023-06-22T14:52:41;9.30;;;5.00;;
70744;SDS011;59284;31.390;34.904;2023-06-22T14:55:07;8.95;;;5.45;;
70744;SDS011;59284;31.390;34.904;2023-06-22T14:57:32;10.55;;;5.38;;
70744;SDS011;59284;31.390;34.904;2023-06-22T14:59:58;8.47;;;5.00;;
70744;SDS011;59284;31.390;34.904;2023-06-22T15:02:24;7.18;;;5.50;;
70744;SDS011;59284;31.390;34.904;2023-06-22T15:04:50;8.63;;;5.70;;
70744;SDS011;59284;31.390;34.904;2023-06-22T15:07:18;11.52;;;5.25;;
70744;SDS011;59284;31.390;34.904;2023-06-22T15:09:43;11.20;;;4.70;;
70744;SDS011;59284;31.390;34.904;2023-06-22T15:12:10;8.70;;;5.10;;
70744;SDS011;59284;31.390;34.904;2023-06-22T15:14:40;10.80;;;5.05;;